Time,TemperatureF,DewpointF,PressureIn,WindDirection,WindDirectionDegrees,WindSpeedMPH,WindSpeedGustMPH,Humidity,HourlyPrecipIn,Conditions,Clouds,dailyrainin,SolarRadiationWatts/m^2,SoftwareType,DateUTC
2013-03-11 00:22:00,38.0,27.0,-100.00,East,88,1.0,4.0,65,0.00,,,0.00,1.000000,,2013-03-11 07:22:00,
2013-03-11 00:32:00,38.0,27.0,-100.00,East,88,1.0,4.0,65,0.00,,,0.00,1.000000,,2013-03-11 07:32:00,
2013-03-11 00:42:00,38.0,27.0,-100.00,East,88,1.0,4.0,65,0.00,,,0.00,1.000000,,2013-03-11 07:42:00,
2013-03-11 00:52:00,38.0,27.0,-100.00,East,88,1.0,4.0,65,0.00,,,0.00,1.000000,,2013-03-11 07:52:00,
2013-03-11 01:22:00,34.0,26.0,-100.00,East,87,3.0,4.0,72,0.00,,,0.00,1.000000,,2013-03-11 08:22:00,
2013-03-11 01:32:00,34.0,26.0,-100.00,East,87,3.0,4.0,72,0.00,,,0.00,1.000000,,2013-03-11 08:32:00,
2013-03-11 01:42:00,34.0,26.0,-100.00,East,87,3.0,4.0,72,0.00,,,0.00,1.000000,,2013-03-11 08:42:00,
2013-03-11 01:52:00,34.0,26.0,-100.00,East,87,3.0,4.0,72,0.00,,,0.00,1.000000,,2013-03-11 08:52:00,
2013-03-11 02:22:00,32.0,25.0,-100.00,ENE,75,5.0,6.0,75,0.00,,,0.00,1.000000,,2013-03-11 09:22:00,
2013-03-11 02:32:00,32.0,25.0,-100.00,ENE,75,5.0,6.0,75,0.00,,,0.00,1.000000,,2013-03-11 09:32:00,
2013-03-11 02:42:00,32.0,25.0,-100.00,ENE,75,5.0,6.0,75,0.00,,,0.00,1.000000,,2013-03-11 09:42:00,
2013-03-11 02:52:00,32.0,25.0,-100.00,ENE,75,5.0,6.0,75,0.00,,,0.00,1.000000,,2013-03-11 09:52:00,
2013-03-11 03:22:00,31.0,25.0,-100.00,East,90,4.0,6.0,78,0.00,,,0.00,1.000000,,2013-03-11 10:22:00,
2013-03-11 03:32:00,31.0,25.0,-100.00,East,90,4.0,6.0,78,0.00,,,0.00,1.000000,,2013-03-11 10:32:00,
2013-03-11 03:42:00,31.0,25.0,-100.00,East,90,4.0,6.0,78,0.00,,,0.00,1.000000,,2013-03-11 10:42:00,
2013-03-11 03:52:00,31.0,25.0,-100.00,East,90,4.0,6.0,78,0.00,,,0.00,1.000000,,2013-03-11 10:52:00,
2013-03-11 04:22:00,31.0,26.0,-100.00,East,86,5.0,8.0,83,0.00,,,-99.99,1.000000,,2013-03-11 11:22:00,
2013-03-11 04:32:00,31.0,26.0,-100.00,East,86,5.0,8.0,83,0.00,,,-99.99,1.000000,,2013-03-11 11:32:00,
2013-03-11 04:42:00,31.0,26.0,-100.00,East,86,5.0,8.0,83,0.00,,,-99.99,1.000000,,2013-03-11 11:42:00,
2013-03-11 04:52:00,31.0,26.0,-100.00,East,86,5.0,8.0,83,0.00,,,-99.99,1.000000,,2013-03-11 11:52:00,
2013-03-11 05:22:00,29.0,26.0,-100.00,ENE,68,6.0,7.0,87,0.00,,,-99.99,1.000000,,2013-03-11 12:22:00,
2013-03-11 05:32:00,29.0,26.0,-100.00,ENE,68,6.0,7.0,87,0.00,,,-99.99,1.000000,,2013-03-11 12:32:00,
2013-03-11 05:42:00,29.0,26.0,-100.00,ENE,68,6.0,7.0,87,0.00,,,-99.99,1.000000,,2013-03-11 12:42:00,
2013-03-11 05:52:00,29.0,26.0,-100.00,ENE,68,6.0,7.0,87,0.00,,,-99.99,1.000000,,2013-03-11 12:52:00,
2013-03-11 06:22:00,29.0,26.0,-100.00,East,83,2.0,6.0,88,0.00,,,-99.99,1.000000,,2013-03-11 13:22:00,
2013-03-11 06:32:00,29.0,26.0,-100.00,East,83,2.0,6.0,88,0.00,,,-99.99,1.000000,,2013-03-11 13:32:00,
2013-03-11 06:42:00,29.0,26.0,-100.00,East,83,2.0,6.0,88,0.00,,,-99.99,1.000000,,2013-03-11 13:42:00,
2013-03-11 06:52:00,29.0,26.0,-100.00,East,83,2.0,6.0,88,0.00,,,-99.99,1.000000,,2013-03-11 13:52:00,
2013-03-11 07:22:00,28.0,26.0,-100.00,East,83,3.0,4.0,91,0.00,,,-99.99,1.000000,,2013-03-11 14:22:00,
2013-03-11 07:32:00,28.0,26.0,-100.00,East,83,3.0,4.0,91,0.00,,,-99.99,1.000000,,2013-03-11 14:32:00,
2013-03-11 07:42:00,28.0,26.0,-100.00,East,83,3.0,4.0,91,0.00,,,-99.99,1.000000,,2013-03-11 14:42:00,
2013-03-11 07:52:00,28.0,26.0,-100.00,East,83,3.0,4.0,91,0.00,,,-99.99,1.000000,,2013-03-11 14:52:00,
2013-03-11 08:22:00,29.0,26.0,-100.00,NE,54,6.0,7.0,90,0.00,,,0.00,9.000000,,2013-03-11 15:22:00,
2013-03-11 08:32:00,29.0,26.0,-100.00,NE,54,6.0,7.0,90,0.00,,,0.00,9.000000,,2013-03-11 15:32:00,
2013-03-11 08:42:00,29.0,26.0,-100.00,NE,54,6.0,7.0,90,0.00,,,0.00,9.000000,,2013-03-11 15:42:00,
2013-03-11 08:52:00,29.0,26.0,-100.00,NE,54,6.0,7.0,90,0.00,,,0.00,9.000000,,2013-03-11 15:52:00,
2013-03-11 09:22:00,34.0,28.0,-100.00,ENE,63,6.0,9.0,79,0.00,,,0.00,119.000000,,2013-03-11 16:22:00,
2013-03-11 09:32:00,34.0,28.0,-100.00,ENE,63,6.0,9.0,79,0.00,,,0.00,119.000000,,2013-03-11 16:32:00,
2013-03-11 09:42:00,34.0,28.0,-100.00,ENE,63,6.0,9.0,79,0.00,,,0.00,119.000000,,2013-03-11 16:42:00,
2013-03-11 09:52:00,34.0,28.0,-100.00,ENE,63,6.0,9.0,79,0.00,,,0.00,119.000000,,2013-03-11 16:52:00,
2013-03-11 10:24:00,42.0,31.0,-100.00,NE,51,5.0,9.0,64,0.00,,,-99.99,320.000000,,2013-03-11 17:24:00,
2013-03-11 10:34:00,42.0,31.0,-100.00,NE,51,5.0,9.0,64,0.00,,,-99.99,320.000000,,2013-03-11 17:34:00,
2013-03-11 10:42:00,42.0,31.0,-100.00,NE,51,5.0,9.0,64,0.00,,,-99.99,320.000000,,2013-03-11 17:42:00,
2013-03-11 10:52:00,42.0,31.0,-100.00,NE,51,5.0,9.0,64,0.00,,,-99.99,320.000000,,2013-03-11 17:52:00,
2013-03-11 11:22:00,49.0,34.0,-100.00,NNE,14,3.0,8.0,56,0.00,,,0.00,499.000000,,2013-03-11 18:22:00,
2013-03-11 11:32:00,49.0,34.0,-100.00,NNE,14,3.0,8.0,56,0.00,,,0.00,499.000000,,2013-03-11 18:32:00,
2013-03-11 11:42:00,49.0,34.0,-100.00,NNE,14,3.0,8.0,56,0.00,,,0.00,499.000000,,2013-03-11 18:42:00,
2013-03-11 11:52:00,49.0,34.0,-100.00,NNE,14,3.0,8.0,56,0.00,,,0.00,499.000000,,2013-03-11 18:52:00,
2013-03-11 12:22:00,51.0,36.0,-100.00,SW,233,5.0,8.0,56,0.00,,,0.00,652.000000,,2013-03-11 19:22:00,
2013-03-11 12:32:00,51.0,36.0,-100.00,SW,233,5.0,8.0,56,0.00,,,0.00,652.000000,,2013-03-11 19:32:00,
2013-03-11 12:42:00,51.0,36.0,-100.00,SW,233,5.0,8.0,56,0.00,,,0.00,652.000000,,2013-03-11 19:42:00,
2013-03-11 12:52:00,51.0,36.0,-100.00,SW,233,5.0,8.0,56,0.00,,,0.00,652.000000,,2013-03-11 19:52:00,
2013-03-11 13:22:00,52.0,35.0,-100.00,WSW,255,6.0,11.0,53,0.00,,,0.00,714.000000,,2013-03-11 20:22:00,
2013-03-11 13:32:00,52.0,35.0,-100.00,WSW,255,6.0,11.0,53,0.00,,,0.00,714.000000,,2013-03-11 20:32:00,
2013-03-11 13:43:00,52.0,35.0,-100.00,WSW,255,6.0,11.0,53,0.00,,,0.00,714.000000,,2013-03-11 20:43:00,
2013-03-11 13:52:00,52.0,35.0,-100.00,WSW,255,6.0,11.0,53,0.00,,,0.00,714.000000,,2013-03-11 20:52:00,
2013-03-11 14:22:00,55.0,32.0,-100.00,West,260,4.0,9.0,41,0.00,,,0.00,666.000000,,2013-03-11 21:22:00,
2013-03-11 14:32:00,55.0,32.0,-100.00,West,260,4.0,9.0,41,0.00,,,0.00,666.000000,,2013-03-11 21:32:00,
2013-03-11 14:43:00,55.0,32.0,-100.00,West,260,4.0,9.0,41,0.00,,,0.00,666.000000,,2013-03-11 21:43:00,
2013-03-11 14:52:00,55.0,32.0,-100.00,West,260,4.0,9.0,41,0.00,,,0.00,666.000000,,2013-03-11 21:52:00,
2013-03-11 15:22:00,56.0,31.0,-100.00,WSW,243,5.0,9.0,39,0.00,,,0.00,595.000000,,2013-03-11 22:22:00,
2013-03-11 15:32:00,56.0,31.0,-100.00,WSW,243,5.0,9.0,39,0.00,,,0.00,595.000000,,2013-03-11 22:32:00,
2013-03-11 15:43:00,56.0,31.0,-100.00,WSW,243,5.0,9.0,39,0.00,,,0.00,595.000000,,2013-03-11 22:43:00,
2013-03-11 15:52:00,56.0,31.0,-100.00,WSW,243,5.0,9.0,39,0.00,,,0.00,595.000000,,2013-03-11 22:52:00,
2013-03-11 16:22:00,56.0,26.0,-100.00,SW,234,4.0,8.0,31,0.00,,,0.00,456.000000,,2013-03-11 23:22:00,
2013-03-11 16:32:00,56.0,26.0,-100.00,SW,234,4.0,8.0,31,0.00,,,0.00,456.000000,,2013-03-11 23:32:00,
2013-03-11 16:43:00,56.0,26.0,-100.00,SW,234,4.0,8.0,31,0.00,,,0.00,456.000000,,2013-03-11 23:43:00,
2013-03-11 16:52:00,56.0,26.0,-100.00,SW,234,4.0,8.0,31,0.00,,,0.00,456.000000,,2013-03-11 23:52:00,
2013-03-11 17:22:00,59.0,30.0,-100.00,WSW,238,6.0,8.0,33,0.00,,,0.00,423.000000,,2013-03-12 00:22:00,
2013-03-11 17:32:00,59.0,30.0,-100.00,WSW,238,6.0,8.0,33,0.00,,,0.00,423.000000,,2013-03-12 00:32:00,
2013-03-11 17:42:00,59.0,30.0,-100.00,WSW,238,6.0,8.0,33,0.00,,,0.00,423.000000,,2013-03-12 00:42:00,
2013-03-11 17:52:00,59.0,30.0,-100.00,WSW,238,6.0,8.0,33,0.00,,,0.00,423.000000,,2013-03-12 00:52:00,
2013-03-11 18:22:00,57.0,33.0,-100.00,WNW,293,7.0,12.0,40,0.00,,,0.00,322.000000,,2013-03-12 01:22:00,
2013-03-11 18:32:00,57.0,33.0,-100.00,WNW,293,7.0,12.0,40,0.00,,,0.00,322.000000,,2013-03-12 01:32:00,
2013-03-11 18:42:00,57.0,33.0,-100.00,WNW,293,7.0,12.0,40,0.00,,,0.00,322.000000,,2013-03-12 01:42:00,
2013-03-11 18:52:00,57.0,33.0,-100.00,WNW,293,7.0,12.0,40,0.00,,,0.00,322.000000,,2013-03-12 01:52:00,
2013-03-11 19:22:00,50.0,32.0,-100.00,NW,305,5.0,10.0,49,0.00,,,0.00,95.000000,,2013-03-12 02:22:00,
2013-03-11 19:32:00,50.0,32.0,-100.00,NW,305,5.0,10.0,49,0.00,,,0.00,95.000000,,2013-03-12 02:32:00,
2013-03-11 19:42:00,50.0,32.0,-100.00,NW,305,5.0,10.0,49,0.00,,,0.00,95.000000,,2013-03-12 02:42:00,
2013-03-11 19:51:00,50.0,32.0,-100.00,NW,305,5.0,10.0,49,0.00,,,0.00,95.000000,,2013-03-12 02:51:00,
2013-03-11 20:22:00,47.0,35.0,-100.00,ENE,62,1.0,7.0,62,0.00,,,0.00,4.000000,,2013-03-12 03:22:00,
2013-03-11 20:32:00,47.0,35.0,-100.00,ENE,62,1.0,7.0,62,0.00,,,0.00,4.000000,,2013-03-12 03:32:00,
2013-03-11 20:42:00,47.0,35.0,-100.00,ENE,62,1.0,7.0,62,0.00,,,0.00,4.000000,,2013-03-12 03:42:00,
2013-03-11 20:51:00,47.0,35.0,-100.00,ENE,62,1.0,7.0,62,0.00,,,0.00,4.000000,,2013-03-12 03:51:00,
2013-03-11 21:22:00,45.0,35.0,-100.00,ENE,63,3.0,5.0,67,0.00,,,0.00,1.000000,,2013-03-12 04:22:00,
2013-03-11 21:32:00,45.0,35.0,-100.00,ENE,63,3.0,5.0,67,0.00,,,0.00,1.000000,,2013-03-12 04:32:00,
2013-03-11 21:42:00,45.0,35.0,-100.00,ENE,63,3.0,5.0,67,0.00,,,0.00,1.000000,,2013-03-12 04:42:00,
2013-03-11 21:52:00,45.0,35.0,-100.00,ENE,63,3.0,5.0,67,0.00,,,0.00,1.000000,,2013-03-12 04:52:00,
2013-03-11 22:22:00,41.0,33.0,-100.00,ENE,57,4.0,5.0,73,0.00,,,0.00,1.000000,,2013-03-12 05:22:00,
2013-03-11 22:32:00,41.0,33.0,-100.00,ENE,57,4.0,5.0,73,0.00,,,0.00,1.000000,,2013-03-12 05:32:00,
2013-03-11 22:42:00,41.0,33.0,-100.00,ENE,57,4.0,5.0,73,0.00,,,0.00,1.000000,,2013-03-12 05:42:00,
2013-03-11 22:52:00,41.0,33.0,-100.00,ENE,57,4.0,5.0,73,0.00,,,0.00,1.000000,,2013-03-12 05:52:00,
2013-03-11 23:22:00,39.0,32.0,-100.00,ENE,70,4.0,6.0,77,0.00,,,0.00,1.000000,,2013-03-12 06:22:00,
2013-03-11 23:32:00,39.0,32.0,-100.00,ENE,70,4.0,6.0,77,0.00,,,0.00,1.000000,,2013-03-12 06:32:00,
2013-03-11 23:42:00,39.0,32.0,-100.00,ENE,70,4.0,6.0,77,0.00,,,0.00,1.000000,,2013-03-12 06:42:00,
2013-03-11 23:52:00,39.0,32.0,-100.00,ENE,70,4.0,6.0,77,0.00,,,0.00,1.000000,,2013-03-12 06:52:00,